createdAt,value
2022-08-26T00:02:12.765Z,98358.91
2022-08-26T00:04:40.586Z,98358.91
2022-08-26T00:07:08.340Z,98358.91
2022-08-26T00:09:37.332Z,98365.38
2022-08-26T00:12:09.029Z,98356.47
2022-08-26T00:14:37.040Z,98354.03
2022-08-26T00:17:04.811Z,98347.81
2022-08-26T00:19:32.744Z,98354.81
2022-08-26T00:22:01.452Z,98361.06
2022-08-26T00:24:28.906Z,98351.31
2022-08-26T00:26:56.942Z,98347.81
2022-08-26T00:29:24.305Z,98354.03
2022-08-26T00:31:51.810Z,98349.97
2022-08-26T00:34:19.778Z,98356.97
2022-08-26T00:36:49.219Z,98353.47
2022-08-26T00:39:16.737Z,98354.56
2022-08-26T00:41:44.457Z,98350.75
2022-08-26T00:44:12.734Z,98351.03
2022-08-26T00:46:47.174Z,98344.81
2022-08-26T00:49:40.343Z,98349.41
2022-08-26T00:52:14.580Z,98340.50
2022-08-26T00:54:54.997Z,98345.09
2022-08-26T00:57:23.465Z,98345.09
2022-08-26T00:59:57.480Z,98357.50
2022-08-26T01:02:25.426Z,98349.66
2022-08-26T01:04:56.477Z,98344.25
2022-08-26T01:07:27.577Z,98350.50
2022-08-26T01:10:00.594Z,98347.25
2022-08-26T01:12:33.724Z,98353.44
2022-08-26T01:15:02.768Z,98348.03
2022-08-26T01:17:33.758Z,98345.84
2022-08-26T01:20:24.753Z,98350.19
2022-08-26T01:23:05.372Z,98352.34
2022-08-26T01:25:36.992Z,98348.81
2022-08-26T01:28:11.930Z,98357.75
2022-08-26T01:30:41.816Z,98348.53
2022-08-26T01:33:15.639Z,98355.00
2022-08-26T01:35:44.590Z,98350.41
2022-08-26T01:38:13.112Z,98350.66
2022-08-26T01:40:43.877Z,98351.94
2022-08-26T01:43:17.298Z,98351.66
2022-08-26T01:45:48.209Z,98348.38
2022-08-26T01:48:20.980Z,98343.00
2022-08-26T01:50:50.150Z,98346.25
2022-08-26T01:53:19.816Z,98337.28
2022-08-26T01:55:53.157Z,98335.38
2022-08-26T01:58:24.805Z,98339.16
2022-08-26T02:00:53.022Z,98327.78
2022-08-26T02:03:24.084Z,98335.09
2022-08-26T02:06:00.753Z,98329.94
2022-08-26T02:08:36.956Z,98328.56
2022-08-26T02:11:05.442Z,98324.50
2022-08-26T02:13:38.256Z,98329.59
2022-08-26T02:16:08.520Z,98329.28
2022-08-26T02:18:40.272Z,98324.97
2022-08-26T02:21:09.692Z,98330.94
2022-08-26T02:23:38.646Z,98333.34
2022-08-26T02:26:11.358Z,98328.78
2022-08-26T02:29:02.589Z,98328.28
2022-08-26T02:31:30.389Z,98332.59
2022-08-26T02:34:31.309Z,98322.38
2022-08-26T02:37:10.815Z,98326.13
2022-08-26T02:39:40.612Z,98326.13
2022-08-26T02:42:08.678Z,98321.53
2022-08-26T02:44:37.224Z,98322.88
2022-08-26T02:47:07.838Z,98323.41
2022-08-26T02:49:37.593Z,98322.31
2022-08-26T02:52:05.111Z,98316.66
2022-08-26T02:54:33.121Z,98335.31
2022-08-26T02:57:02.930Z,98328.03
2022-08-26T02:59:31.365Z,98325.00
2022-08-26T03:01:58.863Z,98320.94
2022-08-26T03:04:26.533Z,98321.75
2022-08-26T03:06:55.343Z,98317.16
2022-08-26T03:09:23.592Z,98321.75
2022-08-26T03:11:52.312Z,98318.00
2022-08-26T03:14:19.793Z,98318.81
2022-08-26T03:16:50.834Z,98318.00
2022-08-26T03:19:18.922Z,98318.81
2022-08-26T03:21:47.261Z,98312.59
2022-08-26T03:24:15.695Z,98306.34
2022-08-26T03:26:52.125Z,98316.91
2022-08-26T03:29:40.786Z,98309.63
2022-08-26T03:32:09.642Z,98312.06
2022-08-26T03:34:39.099Z,98314.22
2022-08-26T03:37:06.850Z,98317.47
2022-08-26T03:39:35.168Z,98320.16
2022-08-26T03:42:02.744Z,98316.66
2022-08-26T03:44:31.076Z,98310.97
2022-08-26T03:46:58.768Z,98319.84
2022-08-26T03:49:26.222Z,98321.75
2022-08-26T03:51:56.566Z,98312.84
2022-08-26T03:54:24.521Z,98314.75
2022-08-26T03:56:52.014Z,98309.34
2022-08-26T03:59:22.157Z,98309.59
2022-08-26T04:01:50.669Z,98309.84
2022-08-26T04:04:18.343Z,98316.56
2022-08-26T04:06:58.376Z,98306.59
2022-08-26T04:09:27.514Z,98309.28
2022-08-26T04:11:56.774Z,98305.78
2022-08-26T04:14:26.627Z,98301.19
2022-08-26T04:16:55.434Z,98299.56
2022-08-26T04:19:25.588Z,98297.94
2022-08-26T04:21:54.877Z,98299.56
2022-08-26T04:24:24.421Z,98293.38
2022-08-26T04:26:53.157Z,98302.03
2022-08-26T04:29:25.848Z,98302.03
2022-08-26T04:31:55.920Z,98297.44
2022-08-26T04:34:27.228Z,98300.13
2022-08-26T04:36:57.792Z,98302.81
2022-08-26T04:39:25.621Z,98300.13
2022-08-26T04:41:55.541Z,98299.03
2022-08-26T04:44:25.723Z,98297.44
2022-08-26T04:46:53.976Z,98294.72
2022-08-26T04:49:23.136Z,98297.44
2022-08-26T04:51:54.736Z,98300.06
2022-08-26T04:54:22.698Z,98298.47
2022-08-26T04:56:50.752Z,98295.50
2022-08-26T04:59:18.486Z,98286.31
2022-08-26T05:01:48.548Z,98293.38
2022-08-26T05:04:18.955Z,98292.28
2022-08-26T05:06:50.841Z,98300.38
2022-08-26T05:09:19.774Z,98293.09
2022-08-26T05:11:52.097Z,98300.38
2022-08-26T05:14:21.509Z,98293.38
2022-08-26T05:16:50.111Z,98297.13
2022-08-26T05:19:19.270Z,98297.38
2022-08-26T05:21:48.523Z,98296.31
2022-08-26T05:24:17.396Z,98305.47
2022-08-26T05:26:46.722Z,98297.66
2022-08-26T05:29:16.021Z,98302.25
2022-08-26T05:31:44.649Z,98297.91
2022-08-26T05:34:12.607Z,98303.84
2022-08-26T05:36:40.178Z,98291.97
2022-08-26T05:39:10.535Z,98297.13
2022-08-26T05:41:41.090Z,98296.06
2022-08-26T05:44:12.037Z,98294.16
2022-08-26T05:46:40.810Z,98302.81
2022-08-26T05:49:12.834Z,98289.34
2022-08-26T05:51:45.054Z,98294.16
2022-08-26T05:54:14.254Z,98287.97
2022-08-26T05:56:51.865Z,98287.66
2022-08-26T05:59:24.397Z,98288.19
2022-08-26T06:01:54.593Z,98283.84
2022-08-26T06:04:28.099Z,98279.81
2022-08-26T06:06:57.269Z,98274.16
2022-08-26T06:09:25.405Z,98275.78
2022-08-26T06:11:52.874Z,98275.53
2022-08-26T06:14:21.613Z,98277.97
2022-08-26T06:16:49.010Z,98275.84
2022-08-26T06:19:17.240Z,98277.44
2022-08-26T06:21:51.316Z,98279.09
2022-08-26T06:24:41.309Z,98285.28
2022-08-26T06:27:13.455Z,98283.41
2022-08-26T06:29:41.813Z,98283.69
2022-08-26T06:32:09.567Z,98291.50
2022-08-26T06:34:37.116Z,98286.09
2022-08-26T06:37:06.442Z,98286.94
2022-08-26T06:39:34.561Z,98288.56
2022-08-26T06:42:03.136Z,98289.34
2022-08-26T06:44:33.605Z,98286.66
2022-08-26T06:47:01.724Z,98289.34
2022-08-26T06:49:29.148Z,98300.16
2022-08-26T06:51:59.054Z,98287.22
2022-08-26T06:54:30.264Z,98293.41
2022-08-26T06:56:57.911Z,98297.50
2022-08-26T06:59:25.733Z,98296.19
2022-08-26T07:01:54.721Z,98292.38
2022-08-26T07:04:24.445Z,98284.84
2022-08-26T07:06:53.523Z,98289.44
2022-08-26T07:09:24.248Z,98294.31
2022-08-26T07:11:53.153Z,98293.81
2022-08-26T07:14:21.620Z,98291.66
2022-08-26T07:16:50.785Z,98297.63
2022-08-26T07:19:30.566Z,98285.72
2022-08-26T07:22:03.409Z,98291.69
2022-08-26T07:24:36.875Z,98296.03
2022-08-26T07:27:08.705Z,98298.44
2022-08-26T07:29:39.374Z,98295.50
2022-08-26T07:32:08.209Z,98290.63
2022-08-26T07:34:38.397Z,98291.22
2022-08-26T07:37:06.268Z,98290.63
2022-08-26T07:39:36.681Z,98290.63
2022-08-26T07:42:07.435Z,98290.91
2022-08-26T07:44:37.328Z,98295.00
2022-08-26T07:47:10.547Z,98296.63
2022-08-26T07:49:57.354Z,98291.50
2022-08-26T07:52:27.728Z,98297.19
2022-08-26T07:55:00.273Z,98291.28
2022-08-26T07:57:29.525Z,98292.59
2022-08-26T07:59:57.805Z,98293.44
2022-08-26T08:02:28.073Z,98293.44
2022-08-26T08:04:57.770Z,98295.59
2022-08-26T08:07:38.758Z,98302.59
2022-08-26T08:10:18.960Z,98300.47
2022-08-26T08:12:49.613Z,98298.31
2022-08-26T08:15:21.153Z,98293.47
2022-08-26T08:17:50.539Z,98298.88
2022-08-26T08:20:20.245Z,98301.56
2022-08-26T08:22:47.973Z,98296.16
2022-08-26T08:25:15.899Z,98298.06
2022-08-26T08:27:48.559Z,98295.63
2022-08-26T08:30:20.819Z,98289.97
2022-08-26T08:32:51.960Z,98292.91
2022-08-26T08:35:23.123Z,98287.00
2022-08-26T08:37:54.338Z,98286.72
2022-08-26T08:40:24.984Z,98285.91
2022-08-26T08:43:04.841Z,98282.16
2022-08-26T08:45:40.913Z,98277.56
2022-08-26T08:48:29.540Z,98274.59
2022-08-26T08:51:06.431Z,98278.66
2022-08-26T08:53:39.418Z,98274.06
2022-08-26T08:56:32.821Z,98267.84
2022-08-26T08:59:17.728Z,98265.97
2022-08-26T09:01:45.269Z,98260.31
2022-08-26T09:04:38.593Z,98257.31
2022-08-26T09:07:11.798Z,98266.81
2022-08-26T09:10:00.270Z,98260.88
2022-08-26T09:12:31.435Z,98262.50
2022-08-26T09:15:07.716Z,98249.50
2022-08-26T09:17:42.409Z,98246.56
2022-08-26T09:20:25.864Z,98239.81
2022-08-26T09:22:53.624Z,98246.59
2022-08-26T09:25:21.284Z,98235.50
2022-08-26T09:27:52.768Z,98247.94
2022-08-26T09:30:35.295Z,98240.63
2022-08-26T09:33:11.125Z,98228.75
2022-08-26T09:35:40.957Z,98238.50
2022-08-26T09:38:22.878Z,98226.59
2022-08-26T09:41:01.270Z,98230.94
2022-08-26T09:43:29.973Z,98231.19
2022-08-26T09:46:19.474Z,98235.53
2022-08-26T09:48:47.513Z,98227.16
2022-08-26T09:51:26.297Z,98223.38
2022-08-26T09:53:57.678Z,98222.84
2022-08-26T09:56:32.587Z,98229.88
2022-08-26T09:59:01.736Z,98223.13
2022-08-26T10:01:36.075Z,98218.53
2022-08-26T10:04:26.783Z,98221.78
2022-08-26T10:07:00.539Z,98217.22
2022-08-26T10:09:33.275Z,98219.38
2022-08-26T10:12:08.224Z,98222.88
2022-08-26T10:17:20.922Z,98223.97
2022-08-26T10:19:57.905Z,98219.13
2022-08-26T10:22:50.701Z,98212.63
2022-08-26T10:25:28.349Z,98221.00
2022-08-26T10:28:10.994Z,98216.94
2022-08-26T10:30:45.384Z,98209.13
2022-08-26T10:33:18.426Z,98211.53
2022-08-26T10:35:56.306Z,98210.22
2022-08-26T10:38:34.737Z,98203.72
2022-08-26T10:41:14.324Z,98203.44
2022-08-26T10:43:55.227Z,98200.44
2022-08-26T10:46:27.419Z,98205.06
2022-08-26T10:49:11.555Z,98194.25
2022-08-26T10:52:16.499Z,98201.28
2022-08-26T10:55:05.854Z,98202.91
2022-08-26T10:57:42.123Z,98194.78
2022-08-26T11:00:37.414Z,98188.31
2022-08-26T11:03:32.511Z,98189.38
2022-08-26T11:06:18.531Z,98192.63
2022-08-26T11:08:47.603Z,98185.03
2022-08-26T11:11:39.729Z,98187.22
2022-08-26T11:14:08.727Z,98186.69
2022-08-26T11:16:49.769Z,98188.28
2022-08-26T11:19:40.130Z,98183.97
2022-08-26T11:22:34.822Z,98185.31
2022-08-26T11:25:57.016Z,98176.94
2022-08-26T11:28:38.452Z,98178.81
2022-08-26T11:31:12.927Z,98172.59
2022-08-26T11:33:43.876Z,98169.38
2022-08-26T11:36:33.341Z,98165.84
2022-08-26T11:39:54.821Z,98161.25
2022-08-26T11:42:33.114Z,98160.13
2022-08-26T11:45:13.660Z,98159.06
2022-08-26T11:47:42.053Z,98151.22
2022-08-26T11:50:13.458Z,98151.50
2022-08-26T11:52:40.957Z,98159.88
2022-08-26T11:55:14.945Z,98160.13
2022-08-26T11:57:47.747Z,98154.19
2022-08-26T12:00:33.721Z,98146.63
2022-08-26T12:03:07.228Z,98148.53
2022-08-26T12:05:42.201Z,98147.16
2022-08-26T12:08:13.715Z,98137.16
2022-08-26T12:10:43.797Z,98136.34
2022-08-26T12:13:22.062Z,98136.34
2022-08-26T12:15:58.581Z,98134.97
2022-08-26T12:18:30.252Z,98130.94
2022-08-26T12:21:12.294Z,98126.63
2022-08-26T12:23:48.043Z,98126.63
2022-08-26T12:26:33.777Z,98114.44
2022-08-26T12:29:10.033Z,98126.63
2022-08-26T12:32:15.203Z,98114.69
2022-08-26T12:34:44.208Z,98116.34
2022-08-26T12:37:13.996Z,98113.63
2022-08-26T12:39:44.526Z,98119.28
2022-08-26T12:42:12.200Z,98116.31
2022-08-26T12:44:53.263Z,98114.69
2022-08-26T12:47:42.566Z,98118.50
2022-08-26T12:50:29.059Z,98110.34
2022-08-26T12:53:08.800Z,98112.78
2022-08-26T12:55:41.688Z,98114.16
2022-08-26T12:58:39.434Z,98108.75
2022-08-26T13:01:07.056Z,98115.22
2022-08-26T13:03:35.231Z,98106.56
2022-08-26T13:06:22.162Z,98102.50
2022-08-26T13:08:55.954Z,98093.56
2022-08-26T13:11:29.993Z,98095.72
2022-08-26T13:14:07.058Z,98093.00
2022-08-26T13:16:36.010Z,98094.09
2022-08-26T13:19:10.359Z,98080.81
2022-08-26T13:21:44.929Z,98081.66
2022-08-26T13:24:14.043Z,98087.06
2022-08-26T13:26:43.650Z,98083.25
2022-08-26T13:29:12.033Z,98075.13
2022-08-26T13:31:42.100Z,98093.50
2022-08-26T13:34:11.965Z,98089.75
2022-08-26T13:36:39.473Z,98094.34
2022-08-26T13:39:07.256Z,98089.75
2022-08-26T13:41:36.201Z,98078.91
2022-08-26T13:44:04.741Z,98079.44
2022-08-26T13:46:33.980Z,98086.19
2022-08-26T13:49:02.131Z,98082.69
2022-08-26T13:51:30.126Z,98089.72
2022-08-26T13:53:57.988Z,98081.06
2022-08-26T13:56:29.338Z,98084.84
2022-08-26T13:58:58.484Z,98080.47
2022-08-26T14:01:28.964Z,98083.47
2022-08-26T14:03:56.587Z,98072.38
2022-08-26T14:06:25.168Z,98074.28
2022-08-26T14:08:52.968Z,98074.28
2022-08-26T14:11:21.471Z,98075.06
2022-08-26T14:13:48.953Z,98068.06
2022-08-26T14:16:25.741Z,98070.47
2022-08-26T14:18:54.010Z,98059.63
2022-08-26T14:21:22.000Z,98069.66
2022-08-26T14:23:49.394Z,98072.91
2022-08-26T14:26:28.587Z,98070.19
2022-08-26T14:28:59.544Z,98062.88
2022-08-26T14:31:31.320Z,98064.78
2022-08-26T14:34:03.641Z,98071.28
2022-08-26T14:36:32.369Z,98062.06
2022-08-26T14:39:06.882Z,98064.25
2022-08-26T14:41:38.195Z,98062.63
2022-08-26T14:44:10.767Z,98061.00
2022-08-26T14:46:46.870Z,98059.94
2022-08-26T14:49:14.713Z,98059.94
2022-08-26T14:51:42.210Z,98060.47
2022-08-26T14:54:13.761Z,98060.47
2022-08-26T14:56:55.612Z,98058.03
2022-08-26T14:59:43.554Z,98057.22
2022-08-26T15:02:30.908Z,98057.22
2022-08-26T15:05:02.209Z,98057.22
2022-08-26T15:07:30.137Z,98058.03
2022-08-26T15:09:58.025Z,98052.88
2022-08-26T15:12:25.780Z,98050.16
2022-08-26T15:14:53.877Z,98055.59
2022-08-26T15:17:21.317Z,98050.16
2022-08-26T15:19:48.864Z,98048.56
2022-08-26T15:22:16.706Z,98047.72
2022-08-26T15:24:45.283Z,98052.88
2022-08-26T15:27:12.820Z,98052.88
2022-08-26T15:29:40.561Z,98063.16
2022-08-26T15:32:08.179Z,98061.56
2022-08-26T15:34:35.710Z,98056.16
2022-08-26T15:37:06.142Z,98060.75
2022-08-26T15:39:34.843Z,98065.34
2022-08-26T15:42:03.756Z,98062.94
2022-08-26T15:44:31.419Z,98062.09
2022-08-26T15:46:59.419Z,98060.50
2022-08-26T15:49:27.669Z,98056.97
2022-08-26T15:51:55.573Z,98053.97
2022-08-26T15:54:24.156Z,98054.28
2022-08-26T15:56:52.959Z,98054.53
2022-08-26T15:59:22.025Z,98057.25
2022-08-26T16:01:50.574Z,98059.16
2022-08-26T16:04:18.671Z,98046.44
2022-08-26T16:06:50.082Z,98055.63
2022-08-26T16:09:19.440Z,98051.03
2022-08-26T16:11:49.511Z,98054.81
2022-08-26T16:14:17.117Z,98047.00
2022-08-26T16:16:44.489Z,98049.41
2022-08-26T16:19:12.857Z,98044.00
2022-08-26T16:21:41.226Z,98039.38
2022-08-26T16:24:09.020Z,98038.56
2022-08-26T16:26:38.494Z,98042.91
2022-08-26T16:29:12.221Z,98033.69
2022-08-26T16:31:41.025Z,98023.13
2022-08-26T16:34:09.148Z,98032.09
2022-08-26T16:36:39.016Z,98031.25
2022-08-26T16:39:07.953Z,98024.78
2022-08-26T16:41:37.062Z,98019.34
2022-08-26T16:44:07.050Z,98020.44
2022-08-26T16:46:35.813Z,98016.66
2022-08-26T16:49:04.577Z,98012.84
2022-08-26T16:51:37.920Z,98006.63
2022-08-26T16:54:07.567Z,98003.09
2022-08-26T16:56:36.467Z,98005.56
2022-08-26T16:59:06.078Z,98004.72
2022-08-26T17:01:33.835Z,98007.44
2022-08-26T17:04:01.429Z,98006.88
2022-08-26T17:06:29.710Z,97999.88
2022-08-26T17:08:57.847Z,97996.63
2022-08-26T17:11:25.542Z,97991.22
2022-08-26T17:13:53.017Z,97995.03
2022-08-26T17:16:23.284Z,97993.38
2022-08-26T17:18:58.930Z,97988.53
2022-08-26T17:21:28.301Z,97992.31
2022-08-26T17:23:56.519Z,97983.66
2022-08-26T17:26:24.000Z,97995.59
2022-08-26T17:28:51.522Z,97989.38
2022-08-26T17:31:21.301Z,97992.34
2022-08-26T17:33:53.874Z,97995.34
2022-08-26T17:36:27.980Z,98001.00
2022-08-26T17:38:57.614Z,97995.09
2022-08-26T17:41:25.899Z,97998.88
2022-08-26T17:43:53.501Z,97996.72
2022-08-26T17:46:21.112Z,97993.19
2022-08-26T17:48:48.835Z,97990.75
2022-08-26T17:51:19.245Z,97995.09
2022-08-26T17:53:47.850Z,97997.28
2022-08-26T17:56:17.789Z,97993.22
2022-08-26T17:58:51.016Z,97998.41
2022-08-26T18:01:26.120Z,98001.38
2022-08-26T18:03:59.680Z,97999.75
2022-08-26T18:06:30.511Z,97993.50
2022-08-26T18:08:59.315Z,98003.25
2022-08-26T18:11:29.532Z,98000.84
2022-08-26T18:13:57.650Z,98000.03
2022-08-26T18:16:25.249Z,98006.78
2022-08-26T18:18:53.594Z,98000.59
2022-08-26T18:21:24.585Z,98005.72
2022-08-26T18:23:53.577Z,98010.31
2022-08-26T18:26:36.316Z,98008.19
2022-08-26T18:29:05.433Z,98019.81
2022-08-26T18:31:33.828Z,98014.66
2022-08-26T18:34:02.937Z,98006.00
2022-08-26T18:36:36.931Z,98015.75
2022-08-26T18:39:05.989Z,98016.84
2022-08-26T18:41:39.073Z,98011.16
2022-08-26T18:44:09.482Z,98010.34
2022-08-26T18:46:40.804Z,98015.22
2022-08-26T18:49:12.436Z,98013.63
2022-08-26T18:51:40.753Z,98014.16
2022-08-26T18:54:08.657Z,98012.53
2022-08-26T18:56:39.368Z,98007.13
2022-08-26T18:59:08.565Z,98013.91
2022-08-26T19:01:39.683Z,98004.41
2022-08-26T19:04:09.004Z,98008.19
2022-08-26T19:06:43.416Z,98004.94
2022-08-26T19:09:12.113Z,98001.69
2022-08-26T19:11:42.965Z,98012.22
2022-08-26T19:14:15.472Z,98013.88
2022-08-26T19:16:47.490Z,98010.38
2022-08-26T19:19:16.447Z,98013.88
2022-08-26T19:21:44.133Z,98010.91
2022-08-26T19:24:17.648Z,98010.91
2022-08-26T19:26:57.912Z,98016.31
2022-08-26T19:29:29.508Z,98020.88
2022-08-26T19:31:57.556Z,98017.91
2022-08-26T19:34:25.657Z,98017.91
2022-08-26T19:36:54.098Z,98015.22
2022-08-26T19:39:23.717Z,98020.63
2022-08-26T19:41:52.128Z,98032.53
2022-08-26T19:44:41.395Z,98029.81
2022-08-26T19:47:10.650Z,98034.13
2022-08-26T19:49:38.469Z,98040.63
2022-08-26T19:52:07.097Z,98041.44
2022-08-26T19:54:36.120Z,98041.72
2022-08-26T19:57:04.484Z,98044.94
2022-08-26T19:59:33.164Z,98049.81
2022-08-26T20:02:01.990Z,98054.41
2022-08-26T20:04:32.467Z,98054.69
2022-08-26T20:07:01.612Z,98055.47
2022-08-26T20:09:30.429Z,98056.59
2022-08-26T20:11:58.071Z,98051.97
2022-08-26T20:14:26.937Z,98056.59
2022-08-26T20:16:54.882Z,98058.47
2022-08-26T20:19:40.948Z,98058.47
2022-08-26T20:22:11.750Z,98055.78
2022-08-26T20:24:39.262Z,98061.44
2022-08-26T20:27:07.936Z,98065.25
2022-08-26T20:29:37.697Z,98064.41
2022-08-26T20:32:07.676Z,98059.00
2022-08-26T20:34:36.301Z,98068.22
2022-08-26T20:37:05.466Z,98065.75
2022-08-26T20:39:33.067Z,98076.56
2022-08-26T20:42:00.527Z,98070.38
2022-08-26T20:44:29.177Z,98063.31
2022-08-26T20:46:56.720Z,98068.72
2022-08-26T20:49:27.147Z,98062.25
2022-08-26T20:51:55.032Z,98062.50
2022-08-26T20:54:28.247Z,98061.72
2022-08-26T20:56:58.226Z,98061.16
2022-08-26T20:59:26.198Z,98070.91
2022-08-26T21:01:54.719Z,98063.88
2022-08-26T21:04:25.485Z,98062.25
2022-08-26T21:06:54.377Z,98060.38
2022-08-26T21:09:23.779Z,98056.03
2022-08-26T21:11:52.477Z,98057.38
2022-08-26T21:14:20.583Z,98056.56
2022-08-26T21:16:48.345Z,98060.34
2022-08-26T21:19:18.471Z,98053.59
2022-08-26T21:21:47.611Z,98050.09
2022-08-26T21:24:16.210Z,98048.19
2022-08-26T21:26:44.076Z,98039.53
2022-08-26T21:29:13.459Z,98042.25
2022-08-26T21:31:45.677Z,98040.38
2022-08-26T21:34:17.811Z,98046.84
2022-08-26T21:36:49.864Z,98049.00
2022-08-26T21:39:18.366Z,98047.09
2022-08-26T21:41:47.413Z,98047.41
2022-08-26T21:44:16.765Z,98046.56
2022-08-26T21:46:45.822Z,98047.09
2022-08-26T21:49:15.894Z,98040.63
2022-08-26T21:51:47.382Z,98055.75
2022-08-26T21:54:16.157Z,98046.03
2022-08-26T21:56:47.015Z,98044.41
2022-08-26T21:59:18.607Z,98053.31
2022-08-26T22:01:47.124Z,98049.81
2022-08-26T22:04:15.578Z,98052.50
2022-08-26T22:06:47.073Z,98050.91
2022-08-26T22:09:19.006Z,98053.06
2022-08-26T22:11:47.306Z,98055.75
2022-08-26T22:14:16.197Z,98052.22
2022-08-26T22:16:50.224Z,98053.06
2022-08-26T22:19:21.005Z,98059.53
2022-08-26T22:21:53.302Z,98051.41
2022-08-26T22:24:23.736Z,98047.66
2022-08-26T22:26:51.797Z,98050.63
2022-08-26T22:29:20.190Z,98045.22
2022-08-26T22:31:48.296Z,98040.88
2022-08-26T22:34:17.354Z,98041.16
2022-08-26T22:36:46.731Z,98034.66
2022-08-26T22:39:16.827Z,98025.75
2022-08-26T22:41:46.007Z,98024.41
2022-08-26T22:44:13.460Z,98025.47
2022-08-26T22:46:42.512Z,98026.03
2022-08-26T22:49:15.692Z,98012.78
2022-08-26T22:51:45.581Z,98019.00
2022-08-26T22:54:13.830Z,98010.88
2022-08-26T22:56:42.045Z,98013.06
2022-08-26T22:59:10.908Z,98007.94
2022-08-26T23:01:42.331Z,98013.03
2022-08-26T23:04:11.012Z,98001.69
2022-08-26T23:06:41.513Z,98006.56
2022-08-26T23:09:09.596Z,98005.19
2022-08-26T23:11:39.772Z,97997.31
2022-08-26T23:14:10.294Z,97993.28
2022-08-26T23:16:43.540Z,97998.69
2022-08-26T23:19:13.292Z,97991.66
2022-08-26T23:21:41.948Z,97991.94
2022-08-26T23:24:10.025Z,97991.09
2022-08-26T23:26:38.925Z,97989.75
2022-08-26T23:29:08.681Z,98000.84
2022-08-26T23:31:37.939Z,97998.94
2022-08-26T23:34:24.361Z,97997.31
2022-08-26T23:36:53.801Z,98004.84
2022-08-26T23:39:21.412Z,97999.47
2022-08-26T23:41:48.829Z,97991.66
2022-08-26T23:44:16.660Z,97990.81
2022-08-26T23:46:44.067Z,97992.47
2022-08-26T23:49:12.601Z,97989.22
2022-08-26T23:51:59.133Z,97994.06
2022-08-26T23:54:26.910Z,97981.63
2022-08-26T23:56:54.720Z,97985.41
2022-08-26T23:59:22.174Z,97986.75
